Time;durP1;ratioP1;P1;durP2;ratioP2;P2;SDS_P1;SDS_P2;PMS_P1;PMS_P2;Temp;Humidity;BMP_temperature;BMP_pressure;BME280_temperature;BME280_humidity;BME280_pressure;Samples;Min_cycle;Max_cycle;Signal;HPM_P1;HPM_P2
2021/08/19 00:01:13;;;;;;;6.97;6.47;;;;;;;16.28;80.44;100157.66;5047757;28;20198;-78
2021/08/19 00:03:39;;;;;;;6.93;6.33;;;;;;;16.22;80.64;100146.56;5048312;28;20233;-78
2021/08/19 00:06:07;;;;;;;7.10;6.50;;;;;;;16.18;80.24;100169.56;5052945;28;20197;-78
2021/08/19 00:08:33;;;;;;;6.43;5.83;;;;;;;16.16;80.52;100157.38;5048364;28;20208;-78
2021/08/19 00:11:00;;;;;;;6.77;6.20;;;;;;;16.06;80.38;100152.53;5048497;28;20205;-78
2021/08/19 00:13:28;;;;;;;6.27;5.77;;;;;;;16.07;80.30;100161.28;5049523;28;20225;-78
2021/08/19 00:15:56;;;;;;;6.70;6.00;;;;;;;16.03;80.47;100151.81;5049430;28;20210;-79
2021/08/19 00:18:23;;;;;;;6.20;5.60;;;;;;;16.10;80.40;100149.78;5048274;28;20671;-80
2021/08/19 00:20:49;;;;;;;6.20;5.60;;;;;;;16.13;80.05;100157.53;5046826;28;20201;-79
2021/08/19 00:23:17;;;;;;;5.57;5.07;;;;;;;16.19;79.91;100163.34;5047530;28;20237;-79
2021/08/19 00:25:44;;;;;;;5.07;4.67;;;;;;;16.14;80.08;100164.50;5047217;28;20228;-78
2021/08/19 00:28:11;;;;;;;5.67;5.27;;;;;;;16.10;79.64;100173.47;5049713;28;20197;-78
2021/08/19 00:30:37;;;;;;;4.90;4.50;;;;;;;16.14;79.54;100177.69;5049455;28;20203;-79
2021/08/19 00:33:04;;;;;;;5.70;5.27;;;;;;;16.11;79.43;100186.53;5051173;28;20213;-78
2021/08/19 00:35:30;;;;;;;6.03;4.77;;;;;;;16.16;79.47;100189.00;5055060;28;20210;-78
2021/08/19 00:37:57;;;;;;;5.17;4.63;;;;;;;16.17;79.72;100177.50;5058528;28;20212;-80
2021/08/19 00:40:25;;;;;;;5.50;5.00;;;;;;;16.16;79.59;100181.09;5041218;28;20240;-79
2021/08/19 00:42:52;;;;;;;5.70;5.20;;;;;;;16.21;79.48;100182.59;5040452;28;20283;-78
2021/08/19 00:45:21;;;;;;;5.47;5.07;;;;;;;16.14;79.60;100185.56;5041314;28;20255;-79
2021/08/19 00:47:47;;;;;;;5.90;5.50;;;;;;;16.06;80.01;100155.19;5041463;28;20213;-79
2021/08/19 00:50:14;;;;;;;6.43;5.83;;;;;;;16.11;80.09;100162.84;5041125;28;20213;-78
2021/08/19 00:52:41;;;;;;;5.93;5.53;;;;;;;16.19;80.01;100160.72;5040648;28;20267;-78
2021/08/19 00:55:12;;;;;;;5.87;5.37;;;;;;;16.12;80.16;100161.09;5040450;28;20319;-78
2021/08/19 00:57:40;;;;;;;7.93;6.27;;;;;;;16.08;80.36;100145.41;5040350;28;20296;-78
2021/08/19 01:00:08;;;;;;;7.10;6.50;;;;;;;16.08;80.59;100128.78;5039514;28;20202;-78
2021/08/19 01:02:35;;;;;;;7.53;6.93;;;;;;;16.08;80.34;100134.03;5038862;28;20209;-78
2021/08/19 01:05:01;;;;;;;7.87;7.27;;;;;;;16.11;81.02;100138.31;5051415;28;20232;-77
2021/08/19 01:07:28;;;;;;;8.13;7.53;;;;;;;16.12;80.74;100132.97;5058379;28;20205;-78
2021/08/19 01:09:54;;;;;;;7.17;6.67;;;;;;;16.17;80.84;100135.38;5058944;28;20208;-80
2021/08/19 01:12:21;;;;;;;8.93;8.13;;;;;;;16.19;80.79;100133.53;5058453;28;20219;-80
2021/08/19 01:14:49;;;;;;;7.70;7.10;;;;;;;16.16;81.06;100124.00;5057253;28;20228;-79
2021/08/19 01:17:17;;;;;;;9.60;8.70;;;;;;;16.07;81.50;100109.50;5058372;28;20266;-80
2021/08/19 01:19:46;;;;;;;9.43;8.70;;;;;;;16.12;81.84;100103.16;5057522;28;20214;-78
2021/08/19 01:22:14;;;;;;;8.87;8.07;;;;;;;16.14;81.59;100112.69;5058331;28;20213;-78
2021/08/19 01:24:40;;;;;;;9.33;8.53;;;;;;;16.14;81.79;100102.16;5057556;28;20306;-79
2021/08/19 01:27:13;;;;;;;10.27;8.97;;;;;;;16.17;81.85;100102.00;5057108;28;20208;-78
2021/08/19 01:29:40;;;;;;;10.67;9.83;;;;;;;16.14;81.89;100098.69;5057380;28;20667;-78
2021/08/19 01:32:08;;;;;;;10.17;9.37;;;;;;;16.16;82.02;100091.56;5055820;28;20262;-78
2021/08/19 01:34:35;;;;;;;10.47;9.67;;;;;;;16.18;82.27;100081.81;5057449;28;20287;-78
2021/08/19 01:37:01;;;;;;;11.23;10.33;;;;;;;16.17;81.97;100088.81;5058040;28;20205;-78
2021/08/19 01:39:28;;;;;;;11.67;10.67;;;;;;;16.23;81.84;100085.94;5057645;28;20208;-78
2021/08/19 01:41:55;;;;;;;12.60;11.60;;;;;;;16.16;82.26;100076.59;5057513;28;20699;-78
2021/08/19 01:44:23;;;;;;;11.77;10.87;;;;;;;16.22;82.16;100081.56;5057716;28;20282;-78
2021/08/19 01:46:51;;;;;;;12.33;11.23;;;;;;;16.19;82.42;100073.81;5055441;28;20193;-78
2021/08/19 01:49:18;;;;;;;13.30;12.30;;;;;;;16.22;82.22;100073.66;5037980;28;20301;-78
2021/08/19 01:51:44;;;;;;;14.77;13.70;;;;;;;16.21;82.32;100073.75;5037726;28;20296;-78
2021/08/19 01:54:12;;;;;;;14.87;13.53;;;;;;;16.25;82.25;100075.28;5037507;28;20229;-78
2021/08/19 01:56:38;;;;;;;14.80;13.70;;;;;;;16.24;82.27;100074.44;5038229;28;20222;-79
2021/08/19 01:59:05;;;;;;;13.50;12.60;;;;;;;16.28;82.42;100056.72;5038714;28;20213;-78
2021/08/19 02:01:33;;;;;;;15.17;14.13;;;;;;;16.25;82.37;100062.13;5037880;28;20209;-78
2021/08/19 02:03:59;;;;;;;15.90;14.53;;;;;;;16.16;82.73;100055.53;5053532;28;20225;-78
2021/08/19 02:06:26;;;;;;;16.20;15.00;;;;;;;16.18;82.73;100058.09;5056528;28;20204;-78
2021/08/19 02:08:52;;;;;;;14.47;13.47;;;;;;;16.21;82.29;100057.94;5058353;28;20238;-79
2021/08/19 02:11:20;;;;;;;15.60;14.50;;;;;;;16.25;82.20;100072.66;5061255;28;20270;-78
2021/08/19 02:13:47;;;;;;;15.67;14.53;;;;;;;16.20;82.17;100078.16;5060685;28;20228;-80
2021/08/19 02:16:14;;;;;;;15.40;14.20;;;;;;;16.08;82.44;100068.22;5060907;28;20205;-78
2021/08/19 02:18:41;;;;;;;15.30;14.20;;;;;;;16.08;82.72;100055.06;5060868;28;20201;-78
2021/08/19 02:21:08;;;;;;;14.77;13.67;;;;;;;16.14;82.50;100067.06;5060065;28;20204;-78
2021/08/19 02:23:35;;;;;;;14.10;12.97;;;;;;;16.07;82.60;100051.56;5061689;28;20228;-78
2021/08/19 02:26:01;;;;;;;13.77;12.50;;;;;;;16.14;82.38;100056.53;5044814;28;20228;-78
2021/08/19 02:28:28;;;;;;;13.07;11.97;;;;;;;16.10;82.53;100057.63;5041176;28;20209;-79
2021/08/19 02:30:54;;;;;;;13.60;12.63;;;;;;;16.02;82.81;100056.19;5040831;28;20745;-79
2021/08/19 02:33:21;;;;;;;15.30;13.23;;;;;;;16.02;82.83;100050.09;5041016;28;20230;-78
2021/08/19 02:35:49;;;;;;;13.90;12.90;;;;;;;16.02;82.93;100032.50;5059125;28;20655;-78
2021/08/19 02:38:15;;;;;;;13.30;12.30;;;;;;;16.05;82.77;100042.03;5048427;28;20214;-78
2021/08/19 02:40:42;;;;;;;12.97;12.00;;;;;;;16.08;82.64;100048.00;5040666;28;20259;-78
2021/08/19 02:43:09;;;;;;;13.57;12.57;;;;;;;16.09;82.60;100038.31;5039673;28;20232;-78
2021/08/19 02:45:36;;;;;;;11.90;11.07;;;;;;;16.14;82.35;100052.13;5040952;28;20213;-78
2021/08/19 02:48:03;;;;;;;13.27;12.17;;;;;;;16.13;82.41;100058.31;5041976;28;20205;-79
2021/08/19 02:50:30;;;;;;;13.63;12.33;;;;;;;16.15;82.60;100052.97;5040617;28;20212;-78
2021/08/19 02:52:58;;;;;;;13.53;12.53;;;;;;;16.10;82.72;100047.09;5040136;28;20206;-78
2021/08/19 02:55:25;;;;;;;12.70;11.80;;;;;;;16.03;82.61;100035.97;5048749;28;20849;-78
2021/08/19 02:57:51;;;;;;;13.03;12.13;;;;;;;16.01;82.61;100036.03;5060858;28;20212;-78
2021/08/19 03:00:18;;;;;;;13.33;12.37;;;;;;;16.03;82.45;100046.50;5059947;28;20287;-80
2021/08/19 03:02:44;;;;;;;12.00;11.10;;;;;;;16.06;82.71;100047.22;5059997;28;20209;-78
2021/08/19 03:05:11;;;;;;;12.10;11.20;;;;;;;16.13;82.18;100052.19;5059595;28;20229;-78
2021/08/19 03:07:37;;;;;;;11.70;10.70;;;;;;;16.13;82.19;100050.41;5060484;28;20286;-78
2021/08/19 03:10:07;;;;;;;11.73;10.83;;;;;;;16.09;81.94;100062.00;5060038;28;20678;-78
2021/08/19 03:12:33;;;;;;;11.27;10.47;;;;;;;16.13;81.96;100070.63;5059729;28;20205;-79
2021/08/19 03:15:00;;;;;;;11.17;10.30;;;;;;;16.13;81.70;100073.25;5065192;28;20227;-79
2021/08/19 03:17:27;;;;;;;10.70;9.90;;;;;;;16.16;81.56;100076.59;5065616;28;20212;-80
2021/08/19 03:19:53;;;;;;;11.10;10.30;;;;;;;16.05;81.49;100076.25;5064309;28;20201;-80
2021/08/19 03:22:20;;;;;;;10.13;9.30;;;;;;;16.01;81.59;100078.16;5065583;28;20220;-80
2021/08/19 03:24:47;;;;;;;10.57;9.80;;;;;;;16.01;81.38;100079.97;5064752;28;20249;-79
2021/08/19 03:27:15;;;;;;;9.90;9.20;;;;;;;15.94;81.63;100071.50;5065484;28;20281;-80
2021/08/19 03:29:41;;;;;;;9.83;9.13;;;;;;;15.95;81.95;100061.81;5064054;28;20206;-80
2021/08/19 03:32:08;;;;;;;9.97;9.27;;;;;;;15.94;81.62;100073.28;5064898;28;20230;-80
2021/08/19 03:34:35;;;;;;;9.63;8.93;;;;;;;15.92;81.88;100075.16;5065333;28;20232;-78
2021/08/19 03:37:01;;;;;;;9.30;8.53;;;;;;;15.93;81.83;100066.31;5066162;28;20205;-79
2021/08/19 03:39:29;;;;;;;10.47;9.67;;;;;;;15.85;81.94;100069.28;5065750;28;20211;-79
2021/08/19 03:41:55;;;;;;;9.20;8.50;;;;;;;15.81;82.12;100063.31;5065442;28;20215;-80
2021/08/19 03:44:23;;;;;;;10.23;9.33;;;;;;;15.87;82.26;100063.03;5065839;28;20238;-79
2021/08/19 03:46:49;;;;;;;9.83;9.00;;;;;;;15.82;82.11;100064.19;5066235;28;20673;-78
2021/08/19 03:49:16;;;;;;;9.03;8.37;;;;;;;15.86;82.20;100063.97;5063829;28;20212;-79
2021/08/19 03:51:42;;;;;;;8.93;8.33;;;;;;;15.91;81.94;100065.53;5065993;28;20234;-79
2021/08/19 03:54:09;;;;;;;8.40;7.80;;;;;;;15.97;81.76;100083.66;5063972;28;20580;-79
2021/08/19 03:56:39;;;;;;;9.47;8.77;;;;;;;15.87;81.99;100073.56;5046609;28;20202;-80
2021/08/19 03:59:05;;;;;;;9.07;8.20;;;;;;;15.87;82.09;100064.81;5046144;28;20201;-79
2021/08/19 04:01:33;;;;;;;9.03;8.33;;;;;;;15.91;81.77;100069.00;5046039;28;20220;-79
2021/08/19 04:04:00;;;;;;;9.50;8.80;;;;;;;15.90;81.84;100069.94;5050561;28;20255;-80
2021/08/19 04:06:26;;;;;;;9.60;8.73;;;;;;;15.96;81.70;100084.59;5064532;28;20673;-79
2021/08/19 04:08:53;;;;;;;8.90;8.20;;;;;;;15.93;81.82;100075.03;5066548;28;20236;-78
2021/08/19 04:11:19;;;;;;;9.37;8.67;;;;;;;15.99;81.66;100073.91;5066047;28;20696;-79
2021/08/19 04:13:46;;;;;;;9.57;8.77;;;;;;;15.93;81.82;100071.56;5066089;28;20220;-79
2021/08/19 04:16:12;;;;;;;8.60;8.00;;;;;;;15.95;81.95;100064.44;5066153;28;20723;-80
2021/08/19 04:18:40;;;;;;;9.83;9.03;;;;;;;15.91;82.14;100063.75;5066040;28;20678;-80
2021/08/19 04:21:06;;;;;;;9.63;8.83;;;;;;;15.91;82.20;100063.75;5066526;28;20208;-80
2021/08/19 04:23:33;;;;;;;8.63;7.93;;;;;;;15.94;82.28;100062.75;5053222;28;20288;-80
2021/08/19 04:25:59;;;;;;;10.30;9.50;;;;;;;15.91;82.01;100076.06;5041886;28;20204;-79
2021/08/19 04:28:26;;;;;;;9.47;8.57;;;;;;;15.98;82.08;100075.69;5041836;28;20283;-78
2021/08/19 04:30:52;;;;;;;9.23;8.40;;;;;;;16.04;81.92;100078.03;5041571;28;20204;-78
2021/08/19 04:33:19;;;;;;;10.30;9.43;;;;;;;16.03;82.21;100067.56;5058346;28;20243;-80
2021/08/19 04:35:47;;;;;;;10.07;9.17;;;;;;;16.03;82.48;100073.69;5060849;28;20200;-79
2021/08/19 04:38:13;;;;;;;9.70;9.00;;;;;;;16.02;82.30;100071.16;5060238;28;20208;-78
2021/08/19 04:40:40;;;;;;;9.47;8.67;;;;;;;16.04;82.39;100071.94;5051232;28;20256;-78
2021/08/19 04:43:06;;;;;;;10.40;9.57;;;;;;;16.04;82.65;100061.41;5039974;28;20205;-78
2021/08/19 04:45:32;;;;;;;9.80;9.07;;;;;;;16.05;82.76;100057.81;5040342;28;20233;-78
2021/08/19 04:47:59;;;;;;;10.27;9.57;;;;;;;16.07;82.71;100058.59;5040399;28;20209;-80
2021/08/19 04:50:25;;;;;;;10.93;10.03;;;;;;;16.09;82.72;100054.09;5039652;28;20217;-80
2021/08/19 04:52:53;;;;;;;11.07;10.20;;;;;;;16.06;82.96;100059.53;5039571;28;20209;-79
2021/08/19 04:55:20;;;;;;;11.73;10.83;;;;;;;15.94;83.48;100033.81;5039283;28;20255;-79
2021/08/19 04:57:46;;;;;;;11.07;10.27;;;;;;;15.93;83.78;100025.03;5041583;28;20206;-79
2021/08/19 05:00:13;;;;;;;11.63;10.63;;;;;;;15.92;84.16;100022.50;5058619;28;20262;-79
2021/08/19 05:02:40;;;;;;;10.97;10.07;;;;;;;15.99;83.93;100018.63;5057698;28;20217;-78
2021/08/19 05:05:07;;;;;;;11.53;10.47;;;;;;;15.99;83.96;100030.00;5057544;28;20228;-78
2021/08/19 05:07:33;;;;;;;12.33;11.33;;;;;;;15.97;84.24;100025.75;5058006;28;20200;-78
2021/08/19 05:10:01;;;;;;;12.07;11.20;;;;;;;15.98;84.31;100011.66;5058287;28;20259;-78
2021/08/19 05:12:28;;;;;;;12.47;11.50;;;;;;;15.89;84.66;100003.25;5057249;28;20200;-79
2021/08/19 05:14:54;;;;;;;12.53;11.53;;;;;;;15.93;84.89;100001.34;5058056;28;20228;-78
2021/08/19 05:17:20;;;;;;;11.63;10.83;;;;;;;16.00;84.46;100007.19;5058029;28;20257;-78
2021/08/19 05:19:47;;;;;;;11.60;10.60;;;;;;;15.99;84.56;100008.09;5059825;28;20205;-78
2021/08/19 05:22:13;;;;;;;13.80;12.70;;;;;;;15.92;84.52;100009.34;5060463;28;20212;-79
2021/08/19 05:24:40;;;;;;;14.07;12.73;;;;;;;15.91;84.85;100004.97;5059925;28;20643;-78
2021/08/19 05:27:08;;;;;;;13.23;12.33;;;;;;;15.96;85.00;100003.00;5059620;28;20311;-78
2021/08/19 05:29:34;;;;;;;13.87;12.87;;;;;;;15.96;84.50;100008.25;5060736;28;20231;-79
2021/08/19 05:32:01;;;;;;;13.10;11.97;;;;;;;16.00;84.68;100017.72;5061113;28;20208;-78
2021/08/19 05:34:27;;;;;;;13.03;11.83;;;;;;;16.05;84.56;100010.44;5060464;28;20286;-78
2021/08/19 05:36:54;;;;;;;13.23;12.00;;;;;;;16.12;84.28;100027.66;5060490;28;20209;-78
2021/08/19 05:39:20;;;;;;;13.77;12.67;;;;;;;16.06;84.15;100026.16;5062182;28;20209;-78
2021/08/19 05:41:47;;;;;;;12.00;11.10;;;;;;;16.05;84.58;100013.06;5061978;28;20225;-78
2021/08/19 05:44:15;;;;;;;13.23;11.90;;;;;;;16.12;84.28;100021.53;5060246;28;20227;-79
2021/08/19 05:46:41;;;;;;;12.37;11.37;;;;;;;16.21;83.91;100039.50;5057805;28;20241;-78
2021/08/19 05:49:08;;;;;;;14.13;12.80;;;;;;;16.24;83.75;100053.38;5060336;28;20205;-78
2021/08/19 05:51:35;;;;;;;12.87;11.97;;;;;;;16.20;84.00;100049.19;5060440;28;20206;-78
2021/08/19 05:54:02;;;;;;;12.67;11.73;;;;;;;16.30;83.96;100052.22;5059747;28;20263;-78
2021/08/19 05:56:28;;;;;;;12.50;11.60;;;;;;;16.32;83.85;100054.78;5060936;28;20234;-79
2021/08/19 05:58:55;;;;;;;11.87;10.97;;;;;;;16.30;84.02;100052.22;5061551;28;20208;-79
2021/08/19 06:01:22;;;;;;;12.97;12.07;;;;;;;16.33;84.05;100040.69;5061042;28;20216;-78
2021/08/19 06:03:49;;;;;;;13.33;12.23;;;;;;;16.23;84.40;100037.66;5059702;28;20254;-79
2021/08/19 06:06:17;;;;;;;15.60;12.67;;;;;;;16.31;84.21;100047.81;5060978;28;20247;-77
2021/08/19 06:08:44;;;;;;;13.70;12.60;;;;;;;16.30;84.26;100049.59;5059922;28;20700;-78
2021/08/19 06:11:10;;;;;;;14.10;12.93;;;;;;;16.26;84.24;100061.22;5060868;28;20667;-79
2021/08/19 06:13:37;;;;;;;14.23;13.23;;;;;;;16.30;84.45;100046.97;5061215;28;20236;-78
2021/08/19 06:16:04;;;;;;;13.90;12.90;;;;;;;16.32;84.25;100055.66;5061052;28;20204;-79
2021/08/19 06:18:31;;;;;;;13.67;12.67;;;;;;;16.36;83.94;100067.72;5059656;28;20212;-79
2021/08/19 06:20:58;;;;;;;14.77;13.67;;;;;;;16.33;83.67;100088.94;5049262;28;20202;-79
2021/08/19 06:23:24;;;;;;;14.77;13.67;;;;;;;16.28;83.73;100088.31;5043337;28;20226;-78
2021/08/19 06:25:51;;;;;;;14.23;13.13;;;;;;;16.32;83.99;100083.78;5041770;28;20270;-79
2021/08/19 06:28:24;;;;;;;15.03;13.83;;;;;;;16.34;83.80;100087.19;5042132;28;20212;-78
2021/08/19 06:30:50;;;;;;;13.93;12.83;;;;;;;16.28;83.71;100081.28;5040253;28;20215;-79
2021/08/19 06:33:16;;;;;;;13.80;12.60;;;;;;;16.31;83.73;100093.44;5042915;28;20237;-79
2021/08/19 06:35:44;;;;;;;14.77;13.70;;;;;;;16.25;83.88;100097.25;5061934;28;20246;-79
2021/08/19 06:38:11;;;;;;;14.60;13.30;;;;;;;16.21;83.95;100079.88;5059459;28;20720;-79
2021/08/19 06:40:37;;;;;;;14.00;13.00;;;;;;;16.26;83.73;100090.19;5055312;28;20224;-82
2021/08/19 06:43:04;;;;;;;13.90;12.80;;;;;;;16.39;83.72;100103.59;5053694;28;20713;-84
2021/08/19 06:45:30;;;;;;;13.97;12.83;;;;;;;16.41;83.31;100105.25;5054417;28;20229;-82
2021/08/19 06:47:57;;;;;;;12.83;11.93;;;;;;;16.39;82.96;100116.78;5055120;28;20212;-81
2021/08/19 06:50:23;;;;;;;14.77;13.37;;;;;;;16.48;83.08;100114.53;5054754;28;20266;-82
2021/08/19 06:52:51;;;;;;;13.83;12.63;;;;;;;16.50;83.01;100121.53;5039447;28;20205;-83
2021/08/19 06:55:18;;;;;;;13.63;12.47;;;;;;;16.53;82.65;100130.16;5036321;28;20217;-83
2021/08/19 06:57:44;;;;;;;13.90;12.70;;;;;;;16.45;82.97;100125.25;5039441;28;20209;-82
2021/08/19 07:00:12;;;;;;;13.67;12.63;;;;;;;16.34;83.11;100114.38;5038407;28;20351;-81
2021/08/19 07:02:38;;;;;;;13.40;12.30;;;;;;;16.37;83.00;100119.50;5038424;28;20213;-82
2021/08/19 07:05:05;;;;;;;12.70;11.57;;;;;;;16.43;82.99;100120.97;5050844;28;20231;-81
2021/08/19 07:07:32;;;;;;;13.23;12.23;;;;;;;16.45;82.80;100125.25;5057303;28;20737;-83
2021/08/19 07:10:00;;;;;;;15.30;12.10;;;;;;;16.44;82.62;100134.06;5062599;28;20213;-85
2021/08/19 07:12:26;;;;;;;14.03;12.83;;;;;;;16.33;83.31;100120.53;5060556;28;20212;-84
2021/08/19 07:14:53;;;;;;;13.27;12.07;;;;;;;16.36;83.44;100106.41;5060384;28;20411;-82
2021/08/19 07:17:20;;;;;;;12.07;11.17;;;;;;;16.36;83.65;100109.03;5061424;28;20215;-81
2021/08/19 07:19:46;;;;;;;12.27;11.27;;;;;;;16.45;83.22;100121.75;5065503;28;20618;-83
2021/08/19 07:22:13;;;;;;;13.07;11.87;;;;;;;16.43;82.49;100152.56;5059481;28;20208;-86
2021/08/19 07:24:40;;;;;;;11.70;10.90;;;;;;;16.48;82.91;100143.53;5053980;28;20233;-85
2021/08/19 07:27:08;;;;;;;13.33;12.23;;;;;;;16.45;82.43;100156.88;5039180;28;20205;-82
2021/08/19 07:29:35;;;;;;;11.57;10.67;;;;;;;16.50;82.11;100171.59;5037154;28;20205;-83
2021/08/19 07:32:01;;;;;;;12.20;11.40;;;;;;;16.37;82.07;100171.31;5036710;28;20218;-86
2021/08/19 07:34:28;;;;;;;12.97;11.97;;;;;;;16.36;82.19;100183.63;5055965;28;20228;-82
2021/08/19 07:36:54;;;;;;;12.73;11.73;;;;;;;16.46;82.45;100170.88;5055862;28;20247;-83
2021/08/19 07:39:23;;;;;;;14.03;12.77;;;;;;;16.53;82.01;100174.06;5058496;28;20266;-84
2021/08/19 07:41:50;;;;;;;13.10;12.10;;;;;;;16.51;81.71;100189.09;5054089;28;20219;-84
2021/08/19 07:44:18;;;;;;;13.23;12.23;;;;;;;16.44;81.83;100183.28;5037663;28;20232;-84
2021/08/19 07:46:44;;;;;;;12.90;12.00;;;;;;;16.60;81.76;100197.44;5038331;28;20229;-84
2021/08/19 07:49:13;;;;;;;12.67;11.77;;;;;;;16.63;81.43;100205.19;5038271;28;20216;-83
2021/08/19 07:54:58;;;;;;;14.37;12.93;;;;;;;16.64;80.66;100241.16;5022475;28;20248;-81
2021/08/19 07:57:24;;;;;;;13.37;12.37;;;;;;;16.71;81.19;100225.91;5039214;28;20210;-81
2021/08/19 07:59:52;;;;;;;13.40;12.50;;;;;;;16.77;80.27;100254.63;5048725;28;20227;-83
2021/08/19 08:02:19;;;;;;;13.57;12.50;;;;;;;16.67;80.60;100259.47;5060725;28;20208;-84
2021/08/19 08:04:45;;;;;;;13.70;12.70;;;;;;;16.78;80.93;100240.50;5058008;28;20236;-83
2021/08/19 08:07:12;;;;;;;11.63;10.73;;;;;;;16.85;80.82;100249.84;5058481;28;20717;-82
2021/08/19 08:09:52;;;;;;;15.17;13.80;;;;;;;16.76;81.78;100216.00;5059339;28;20744;-84
2021/08/19 08:12:18;;;;;;;14.10;13.00;;;;;;;16.69;81.75;100217.22;5057904;28;20217;-84
2021/08/19 08:14:45;;;;;;;14.17;13.07;;;;;;;16.63;81.89;100221.00;5058296;28;20232;-84
2021/08/19 08:17:13;;;;;;;13.63;12.37;;;;;;;16.70;82.53;100187.28;5056562;28;20682;-83
2021/08/19 08:19:39;;;;;;;13.03;12.03;;;;;;;16.79;82.17;100196.56;5056888;28;20271;-83
2021/08/19 08:22:06;;;;;;;13.27;12.27;;;;;;;16.78;82.01;100213.28;5057017;28;20295;-83
2021/08/19 08:24:33;;;;;;;15.70;14.43;;;;;;;16.82;81.43;100222.78;5054005;28;20222;-83
2021/08/19 08:26:59;;;;;;;15.47;14.17;;;;;;;16.84;83.38;100168.19;5037336;28;20228;-83
2021/08/19 08:29:27;;;;;;;15.17;13.83;;;;;;;16.93;82.08;100201.19;5036671;28;20216;-83
2021/08/19 08:31:55;;;;;;;15.07;13.80;;;;;;;16.90;81.62;100233.81;5035585;28;20572;-82
2021/08/19 08:34:23;;;;;;;14.33;13.13;;;;;;;16.80;80.44;100266.78;5047000;28;20224;-82
2021/08/19 08:36:50;;;;;;;12.57;11.67;;;;;;;16.90;80.72;100252.25;5060267;28;20291;-81
2021/08/19 08:39:19;;;;;;;13.33;12.40;;;;;;;16.91;80.21;100282.13;5040641;28;20194;-81
2021/08/19 08:41:45;;;;;;;12.83;11.83;;;;;;;17.07;80.58;100268.13;5035511;28;20242;-82
2021/08/19 08:44:12;;;;;;;12.20;11.10;;;;;;;17.19;79.23;100297.47;5045409;28;20228;-81
2021/08/19 08:46:40;;;;;;;12.03;11.03;;;;;;;17.21;79.00;100332.56;5049180;28;20253;-82
2021/08/19 08:49:06;;;;;;;12.20;11.00;;;;;;;17.26;78.77;100319.97;5048961;28;20210;-81
2021/08/19 08:51:37;;;;;;;12.40;11.50;;;;;;;17.35;79.07;100319.53;5049901;28;20203;-82
2021/08/19 08:54:04;;;;;;;12.00;11.20;;;;;;;17.43;78.89;100322.66;5049126;28;20247;-82
2021/08/19 08:56:30;;;;;;;11.33;10.43;;;;;;;17.37;78.45;100340.59;5050325;28;20206;-82
2021/08/19 08:58:57;;;;;;;11.67;10.87;;;;;;;17.36;78.20;100358.22;5049755;28;20244;-82
2021/08/19 09:01:23;;;;;;;9.83;9.13;;;;;;;17.44;77.88;100374.53;5049375;28;20213;-83
2021/08/19 09:03:51;;;;;;;10.60;9.70;;;;;;;17.52;78.06;100354.78;5052203;28;20623;-82
2021/08/19 09:06:18;;;;;;;10.53;9.80;;;;;;;17.43;77.63;100380.72;5069952;28;20247;-81
2021/08/19 09:08:52;;;;;;;10.57;9.83;;;;;;;17.48;77.17;100396.31;5069341;28;20210;-82
2021/08/19 09:11:19;;;;;;;9.63;8.93;;;;;;;17.61;77.26;100394.78;5052012;28;20233;-82
2021/08/19 09:13:46;;;;;;;10.07;9.37;;;;;;;17.64;77.00;100401.69;5048851;28;20239;-81
2021/08/19 09:16:17;;;;;;;9.60;8.87;;;;;;;17.67;76.47;100414.75;5049894;28;20202;-82
2021/08/19 09:18:43;;;;;;;10.53;9.10;;;;;;;17.70;76.48;100411.09;5049812;28;20207;-81
2021/08/19 09:21:21;;;;;;;10.40;9.50;;;;;;;17.68;76.43;100421.75;5049701;28;20307;-82
2021/08/19 09:23:47;;;;;;;9.90;9.30;;;;;;;17.69;76.70;100415.53;5050137;28;20225;-83
2021/08/19 09:26:28;;;;;;;9.23;8.53;;;;;;;17.60;76.80;100411.56;5050394;28;20226;-82
2021/08/19 09:29:17;;;;;;;8.37;7.77;;;;;;;17.65;77.24;100393.72;5052143;28;20198;-82
2021/08/19 09:31:44;;;;;;;9.90;9.20;;;;;;;17.62;77.58;100382.44;5068485;28;20196;-81
2021/08/19 09:34:11;;;;;;;10.90;10.20;;;;;;;17.36;78.33;100370.53;5063926;28;20222;-80
2021/08/19 09:36:38;;;;;;;10.07;9.37;;;;;;;17.47;79.14;100328.63;5068564;28;20216;-81
2021/08/19 09:39:05;;;;;;;11.77;10.87;;;;;;;17.54;78.78;100334.47;5070505;28;20208;-82
2021/08/19 09:41:49;;;;;;;10.87;10.07;;;;;;;17.69;79.04;100327.56;5070895;28;20250;-81
2021/08/19 09:44:31;;;;;;;11.77;10.77;;;;;;;17.67;78.72;100340.84;5067975;28;20228;-83
2021/08/19 09:46:58;;;;;;;10.07;9.30;;;;;;;17.75;79.20;100325.47;5038811;28;20229;-82
2021/08/19 09:49:28;;;;;;;12.00;11.10;;;;;;;17.73;79.16;100315.94;5054555;28;20232;-81
2021/08/19 09:52:03;;;;;;;10.63;9.83;;;;;;;17.76;79.50;100308.72;5051880;28;20213;-84
2021/08/19 09:54:30;;;;;;;12.20;11.03;;;;;;;17.73;79.35;100295.66;5050513;28;20232;-85
2021/08/19 09:56:59;;;;;;;11.57;10.77;;;;;;;17.55;80.29;100278.97;5054719;28;20197;-80
2021/08/19 09:59:27;;;;;;;11.90;11.00;;;;;;;17.61;80.16;100278.66;5059349;28;20205;-80
2021/08/19 10:01:55;;;;;;;12.23;11.33;;;;;;;17.62;79.83;100290.94;5059110;28;20617;-81
2021/08/19 10:04:25;;;;;;;11.43;10.53;;;;;;;17.51;80.96;100242.25;5046524;28;20648;-80
2021/08/19 10:06:52;;;;;;;12.53;11.63;;;;;;;17.63;81.06;100241.63;5054377;28;20218;-81
2021/08/19 10:09:22;;;;;;;10.67;9.87;;;;;;;17.87;80.76;100258.00;5056249;28;20303;-85
2021/08/19 10:11:50;;;;;;;11.40;10.60;;;;;;;17.96;80.61;100270.75;5052625;28;20258;-84
2021/08/19 10:14:20;;;;;;;13.50;12.30;;;;;;;18.00;79.72;100289.94;5052823;28;20228;-82
2021/08/19 10:16:48;;;;;;;13.53;12.33;;;;;;;17.76;80.49;100274.38;5053119;28;20209;-83
2021/08/19 10:19:20;;;;;;;12.53;11.63;;;;;;;17.81;80.72;100259.16;5054049;28;20262;-83
2021/08/19 10:21:51;;;;;;;12.37;11.33;;;;;;;17.92;80.53;100263.03;5036432;28;20292;-83
2021/08/19 10:24:24;;;;;;;13.63;12.67;;;;;;;17.90;80.55;100256.97;5032418;28;20280;-86
2021/08/19 10:30:58;;;;;;;13.70;12.43;;;;;;;17.88;81.53;100217.47;5034433;28;20560;-83
2021/08/19 10:33:44;;;;;;;13.10;12.10;;;;;;;17.88;81.50;100221.88;5055396;28;20690;-83
2021/08/19 10:36:50;;;;;;;13.80;12.60;;;;;;;17.99;81.09;100233.59;5055590;28;20233;-85
2021/08/19 10:39:36;;;;;;;15.60;14.30;;;;;;;17.98;81.37;100231.91;5056064;28;20196;-84
2021/08/19 10:42:03;;;;;;;14.50;13.30;;;;;;;18.05;81.48;100219.19;5055483;28;20209;-83
2021/08/19 10:44:32;;;;;;;15.80;12.77;;;;;;;18.07;81.52;100217.34;5055694;28;20228;-85
2021/08/19 10:47:00;;;;;;;14.43;13.30;;;;;;;18.09;81.01;100238.38;5054349;28;20229;-85
2021/08/19 10:49:33;;;;;;;16.00;14.73;;;;;;;17.90;81.12;100230.56;5041925;28;20207;-80
2021/08/19 10:52:28;;;;;;;15.53;14.40;;;;;;;17.87;81.38;100223.69;5035726;28;20210;-80
2021/08/19 10:55:11;;;;;;;15.87;14.47;;;;;;;17.88;81.95;100206.03;5036553;28;20238;-81
2021/08/19 10:57:49;;;;;;;17.97;16.30;;;;;;;17.77;82.32;100196.88;5036471;28;20206;-80
2021/08/19 11:00:17;;;;;;;17.40;16.17;;;;;;;17.66;83.63;100168.41;5038789;28;20606;-80
2021/08/19 11:02:46;;;;;;;17.97;16.53;;;;;;;17.56;84.45;100124.97;5036989;28;20206;-81
2021/08/19 11:05:34;;;;;;;19.63;17.77;;;;;;;17.39;84.97;100106.53;5055725;28;20217;-81
2021/08/19 11:08:01;;;;;;;18.87;17.27;;;;;;;17.32;85.50;100094.56;5042795;28;20722;-81
2021/08/19 11:10:30;;;;;;;18.73;17.10;;;;;;;17.43;85.86;100079.03;5037753;28;20345;-81
2021/08/19 11:13:01;;;;;;;19.50;17.80;;;;;;;17.51;85.93;100081.28;5045788;28;20198;-80
2021/08/19 11:15:28;;;;;;;18.13;16.63;;;;;;;17.58;85.53;100091.44;4354030;28;10000727;-82
2021/08/19 11:17:58;;;;;;;20.43;18.63;;;;;;;17.48;86.07;100074.34;5054544;28;20212;-80
2021/08/19 11:20:28;;;;;;;20.10;18.40;;;;;;;17.32;87.86;100033.91;5038695;28;20214;-81
2021/08/19 11:23:02;;;;;;;18.97;17.13;;;;;;;17.37;88.08;100008.13;5035143;28;20249;-82
2021/08/19 11:25:29;;;;;;;21.27;19.67;;;;;;;17.24;89.22;99985.06;5034457;28;20700;-82